createdAt,value
2018-09-01T00:02:20.225Z,98.60
2018-09-01T00:04:46.473Z,98.60
2018-09-01T00:07:13.049Z,98.80
2018-09-01T00:09:39.461Z,98.90
2018-09-01T00:12:06.062Z,99.40
2018-09-01T00:14:33.477Z,99.70
2018-09-01T00:16:59.758Z,99.70
2018-09-01T00:19:26.018Z,99.40
2018-09-01T00:21:52.572Z,99.50
2018-09-01T00:24:19.241Z,99.80
2018-09-01T00:26:45.624Z,99.90
2018-09-01T00:29:12.353Z,99.90
2018-09-01T00:31:38.593Z,99.90
2018-09-01T00:34:05.205Z,99.90
2018-09-01T00:36:32.697Z,99.90
2018-09-01T00:39:02.259Z,99.90
2018-09-01T00:41:29.255Z,99.90
2018-09-01T00:43:56.535Z,99.90
2018-09-01T00:46:22.817Z,99.90
2018-09-01T00:48:49.517Z,99.90
2018-09-01T00:51:15.895Z,99.90
2018-09-01T00:53:42.264Z,99.90
2018-09-01T00:56:08.505Z,99.90
2018-09-01T00:58:34.779Z,99.90
2018-09-01T01:01:01.785Z,99.90
2018-09-01T01:03:28.033Z,99.90
2018-09-01T01:05:54.316Z,99.90
2018-09-01T01:08:20.596Z,99.90
2018-09-01T01:10:46.849Z,99.90
2018-09-01T01:13:13.828Z,99.90
2018-09-01T01:15:40.111Z,99.90
2018-09-01T01:18:06.435Z,99.90
2018-09-01T01:20:32.661Z,99.90
2018-09-01T01:22:58.893Z,99.90
2018-09-01T01:25:25.157Z,99.90
2018-09-01T01:27:51.400Z,99.90
2018-09-01T01:30:17.673Z,99.90
2018-09-01T01:32:43.924Z,99.90
2018-09-01T01:35:10.149Z,99.90
2018-09-01T01:37:36.412Z,99.90
2018-09-01T01:40:02.669Z,99.90
2018-09-01T01:42:28.981Z,99.90
2018-09-01T01:44:55.256Z,99.90
2018-09-01T01:47:21.515Z,99.90
2018-09-01T01:49:48.531Z,99.90
2018-09-01T01:52:14.765Z,99.90
2018-09-01T01:54:41.049Z,99.90
2018-09-01T01:57:07.272Z,99.90
2018-09-01T01:59:33.502Z,99.90
2018-09-01T02:01:59.774Z,99.90
2018-09-01T02:04:26.046Z,99.90
2018-09-01T02:06:53.017Z,99.90
2018-09-01T02:09:19.332Z,99.90
2018-09-01T02:11:45.562Z,99.90
2018-09-01T02:14:12.532Z,99.90
2018-09-01T02:16:38.801Z,99.90
2018-09-01T02:19:05.043Z,99.90
2018-09-01T02:21:31.323Z,99.90
2018-09-01T02:23:57.598Z,99.90
2018-09-01T02:26:23.838Z,99.90
2018-09-01T02:28:50.068Z,99.90
2018-09-01T02:31:16.326Z,99.90
2018-09-01T02:33:42.562Z,99.90
2018-09-01T02:36:08.885Z,99.90
2018-09-01T02:38:35.121Z,99.90
2018-09-01T02:41:01.395Z,99.90
2018-09-01T02:43:27.687Z,99.90
2018-09-01T02:45:53.925Z,99.90
2018-09-01T02:48:20.161Z,99.90
2018-09-01T02:50:46.429Z,99.90
2018-09-01T02:53:12.693Z,99.90
2018-09-01T02:55:38.979Z,99.90
2018-09-01T02:58:05.236Z,99.90
2018-09-01T03:00:31.537Z,99.90
2018-09-01T03:02:57.790Z,99.90
2018-09-01T03:05:24.068Z,99.90
2018-09-01T03:07:50.341Z,99.90
2018-09-01T03:10:16.609Z,99.90
2018-09-01T03:12:43.161Z,99.90
2018-09-01T03:15:09.459Z,99.90
2018-09-01T03:17:35.721Z,99.90
2018-09-01T03:20:02.024Z,99.90
2018-09-01T03:22:28.298Z,99.90
2018-09-01T03:24:54.561Z,99.90
2018-09-01T03:27:20.820Z,99.90
2018-09-01T03:29:47.793Z,99.90
2018-09-01T03:32:14.061Z,99.90
2018-09-01T03:34:40.291Z,99.90
2018-09-01T03:37:06.573Z,99.90
2018-09-01T03:39:32.810Z,99.90
2018-09-01T03:41:59.090Z,99.90
2018-09-01T03:44:25.363Z,99.90
2018-09-01T03:46:51.600Z,99.90
2018-09-01T03:49:17.893Z,99.90
2018-09-01T03:51:44.900Z,99.90
2018-09-01T03:54:11.195Z,99.90
2018-09-01T03:56:37.497Z,99.90
2018-09-01T03:59:04.509Z,99.90
2018-09-01T04:01:30.752Z,99.90
2018-09-01T04:03:57.016Z,99.90
2018-09-01T04:06:23.260Z,99.90
2018-09-01T04:08:49.563Z,99.90
2018-09-01T04:11:15.833Z,99.90
2018-09-01T04:13:42.145Z,99.90
2018-09-01T04:16:09.124Z,99.90
2018-09-01T04:18:35.385Z,99.90
2018-09-01T04:21:01.630Z,99.90
2018-09-01T04:23:27.898Z,99.90
2018-09-01T04:25:58.457Z,99.90
2018-09-01T04:28:24.852Z,99.90
2018-09-01T04:30:51.095Z,99.90
2018-09-01T04:33:17.354Z,99.90
2018-09-01T04:35:43.629Z,99.90
2018-09-01T04:38:09.903Z,99.90
2018-09-01T04:40:36.185Z,99.90
2018-09-01T04:43:02.430Z,99.90
2018-09-01T04:45:28.749Z,99.90
2018-09-01T04:47:55.037Z,99.90
2018-09-01T04:50:21.345Z,99.90
2018-09-01T04:52:47.593Z,99.90
2018-09-01T04:55:13.879Z,99.90
2018-09-01T04:57:40.141Z,99.90
2018-09-01T05:00:06.622Z,99.90
2018-09-01T05:02:32.914Z,99.90
2018-09-01T05:04:59.182Z,99.90
2018-09-01T05:07:25.472Z,99.90
2018-09-01T05:09:51.783Z,99.90
2018-09-01T05:12:18.052Z,99.90
2018-09-01T05:14:44.336Z,99.90
2018-09-01T05:17:11.312Z,99.90
2018-09-01T05:19:38.338Z,99.90
2018-09-01T05:22:04.585Z,99.90
2018-09-01T05:24:30.851Z,99.90
2018-09-01T05:26:57.099Z,99.90
2018-09-01T05:29:23.361Z,99.90
2018-09-01T05:31:49.669Z,99.90
2018-09-01T05:34:15.953Z,99.90
2018-09-01T05:36:44.244Z,99.90
2018-09-01T05:39:12.616Z,99.90
2018-09-01T05:41:41.470Z,99.90
2018-09-01T05:44:07.741Z,99.90
2018-09-01T05:46:33.977Z,99.90
2018-09-01T05:49:00.267Z,99.90
2018-09-01T05:51:27.256Z,99.90
2018-09-01T05:53:53.487Z,99.90
2018-09-01T05:56:19.761Z,99.90
2018-09-01T05:58:46.001Z,99.90
2018-09-01T06:01:12.296Z,99.90
2018-09-01T06:03:38.720Z,99.90
2018-09-01T06:06:05.108Z,99.90
2018-09-01T06:08:31.464Z,99.90
2018-09-01T06:10:57.769Z,99.90
2018-09-01T06:13:24.837Z,99.90
2018-09-01T06:15:51.178Z,99.90
2018-09-01T06:18:18.451Z,99.90
2018-09-01T06:20:45.675Z,99.90
2018-09-01T06:23:11.906Z,99.90
2018-09-01T06:25:39.108Z,99.90
2018-09-01T06:28:11.243Z,99.90
2018-09-01T06:30:40.928Z,99.90
2018-09-01T06:33:09.869Z,99.90
2018-09-01T06:35:42.242Z,99.90
2018-09-01T06:38:09.118Z,99.90
2018-09-01T06:40:36.863Z,99.90
2018-09-01T06:43:04.500Z,99.90
2018-09-01T06:45:33.143Z,99.90
2018-09-01T06:48:01.713Z,99.90
2018-09-01T06:50:29.822Z,99.90
2018-09-01T06:52:59.584Z,99.90
2018-09-01T06:55:29.397Z,99.90
2018-09-01T06:57:59.331Z,99.90
2018-09-01T07:00:28.113Z,99.90
2018-09-01T07:02:59.785Z,99.90
2018-09-01T07:05:29.332Z,99.90
2018-09-01T07:07:57.675Z,99.90
2018-09-01T07:10:28.202Z,99.90
2018-09-01T07:12:55.260Z,99.90
2018-09-01T07:15:23.601Z,99.90
2018-09-01T07:17:54.424Z,99.90
2018-09-01T07:20:21.613Z,99.90
2018-09-01T07:22:52.074Z,99.90
2018-09-01T07:25:19.543Z,99.90
2018-09-01T07:27:49.522Z,99.90
2018-09-01T07:30:17.582Z,99.90
2018-09-01T07:32:46.235Z,99.90
2018-09-01T07:35:15.811Z,99.90
2018-09-01T07:37:42.946Z,99.90
2018-09-01T07:40:11.143Z,99.90
2018-09-01T07:42:39.599Z,99.90
2018-09-01T07:45:07.692Z,99.90
2018-09-01T07:47:35.748Z,99.90
2018-09-01T07:50:04.206Z,99.90
2018-09-01T07:52:31.727Z,99.90
2018-09-01T07:54:59.953Z,99.90
2018-09-01T07:57:27.565Z,99.90
2018-09-01T07:59:54.738Z,99.90
2018-09-01T08:02:22.298Z,99.90
2018-09-01T08:04:52.138Z,99.90
2018-09-01T08:07:20.985Z,99.90
2018-09-01T08:09:49.304Z,99.90
2018-09-01T08:12:19.031Z,99.90
2018-09-01T08:14:48.305Z,99.90
2018-09-01T08:17:17.857Z,99.90
2018-09-01T08:19:47.921Z,99.90
2018-09-01T08:22:19.002Z,99.90
2018-09-01T08:24:52.125Z,99.90
2018-09-01T08:27:20.844Z,99.50
2018-09-01T08:29:51.596Z,96.40
2018-09-01T08:32:20.217Z,91.90
2018-09-01T08:34:49.840Z,87.70
2018-09-01T08:37:18.097Z,87.00
2018-09-01T08:39:45.627Z,79.00
2018-09-01T08:42:15.785Z,67.00
2018-09-01T08:44:44.772Z,67.00
2018-09-01T08:47:15.596Z,70.40
2018-09-01T08:49:44.979Z,64.30
2018-09-01T08:52:13.034Z,65.50
2018-09-01T08:54:43.724Z,64.60
2018-09-01T08:57:11.882Z,70.50
2018-09-01T08:59:42.334Z,72.00
2018-09-01T09:02:10.499Z,72.50
2018-09-01T09:04:39.532Z,72.80
2018-09-01T09:07:08.753Z,68.90
2018-09-01T09:09:35.940Z,72.70
2018-09-01T09:12:03.079Z,71.20
2018-09-01T09:14:32.941Z,72.30
2018-09-01T09:17:01.129Z,71.80
2018-09-01T09:19:29.554Z,69.00
2018-09-01T09:21:58.383Z,66.20
2018-09-01T09:24:27.255Z,66.50
2018-09-01T09:27:00.323Z,68.50
2018-09-01T09:29:29.224Z,68.50
2018-09-01T09:31:58.970Z,67.90
2018-09-01T09:34:26.149Z,67.20
2018-09-01T09:36:53.495Z,68.60
2018-09-01T09:39:21.976Z,70.10
2018-09-01T09:41:50.591Z,67.30
2018-09-01T09:44:20.314Z,68.80
2018-09-01T09:46:49.326Z,68.80
2018-09-01T09:49:19.878Z,67.30
2018-09-01T09:51:48.364Z,65.70
2018-09-01T09:54:17.663Z,67.10
2018-09-01T09:56:45.835Z,66.80
2018-09-01T09:59:14.830Z,66.10
2018-09-01T10:01:42.491Z,66.70
2018-09-01T10:04:12.081Z,65.10
2018-09-01T10:06:46.752Z,65.40
2018-09-01T10:09:15.989Z,67.70
2018-09-01T10:11:44.158Z,64.80
2018-09-01T10:14:15.371Z,63.50
2018-09-01T10:16:44.673Z,63.80
2018-09-01T10:19:12.409Z,64.90
2018-09-01T10:21:40.611Z,64.90
2018-09-01T10:24:08.789Z,62.80
2018-09-01T10:26:38.691Z,66.60
2018-09-01T10:29:06.781Z,62.40
2018-09-01T10:31:36.294Z,63.00
2018-09-01T10:34:08.359Z,63.70
2018-09-01T10:36:42.075Z,64.30
2018-09-01T10:39:17.188Z,64.70
2018-09-01T10:41:49.930Z,63.80
2018-09-01T10:44:20.214Z,63.10
2018-09-01T10:46:50.923Z,66.40
2018-09-01T10:49:23.901Z,66.50
2018-09-01T10:51:55.080Z,65.70
2018-09-01T10:54:22.910Z,64.50
2018-09-01T10:56:51.104Z,65.80
2018-09-01T10:59:20.465Z,67.30
2018-09-01T11:01:52.260Z,66.00
2018-09-01T11:04:18.634Z,64.70
2018-09-01T11:06:47.504Z,64.30
2018-09-01T11:09:20.023Z,66.00
2018-09-01T11:12:03.281Z,67.00
2018-09-01T11:14:30.779Z,67.00
2018-09-01T11:17:00.128Z,68.70
2018-09-01T11:19:27.777Z,68.60
2018-09-01T11:21:54.207Z,65.90
2018-09-01T11:24:21.320Z,62.00
2018-09-01T11:26:49.080Z,61.90
2018-09-01T11:29:18.234Z,63.40
2018-09-01T11:31:49.598Z,64.70
2018-09-01T11:34:17.147Z,66.70
2018-09-01T11:36:44.855Z,66.60
2018-09-01T11:39:11.144Z,64.90
2018-09-01T11:41:37.637Z,62.20
2018-09-01T11:44:04.469Z,61.20
2018-09-01T11:46:32.273Z,61.40
2018-09-01T11:48:59.350Z,60.30
2018-09-01T11:51:26.449Z,60.10
2018-09-01T11:53:53.153Z,60.10
2018-09-01T11:56:20.092Z,61.20
2018-09-01T11:58:50.685Z,61.80
2018-09-01T12:01:18.154Z,61.30
2018-09-01T12:03:51.738Z,62.20
2018-09-01T12:06:18.155Z,62.80
2018-09-01T12:08:45.659Z,60.90
2018-09-01T12:11:15.300Z,59.20
2018-09-01T12:13:41.723Z,59.20
2018-09-01T12:16:10.825Z,60.40
2018-09-01T12:18:37.229Z,60.10
2018-09-01T12:21:04.990Z,58.50
2018-09-01T12:23:32.085Z,59.10
2018-09-01T12:25:59.492Z,59.00
2018-09-01T12:28:26.473Z,58.50
2018-09-01T12:30:53.472Z,56.90
2018-09-01T12:33:19.728Z,56.70
2018-09-01T12:35:46.116Z,55.90
2018-09-01T12:38:12.434Z,56.70
2018-09-01T12:40:38.692Z,56.30
2018-09-01T12:43:05.232Z,58.60
2018-09-01T12:45:31.489Z,58.70
2018-09-01T12:47:57.816Z,58.10
2018-09-01T12:50:24.236Z,59.10
2018-09-01T12:52:50.472Z,58.90
2018-09-01T12:55:17.666Z,57.70
2018-09-01T12:57:43.969Z,58.50
2018-09-01T13:00:11.167Z,57.10
2018-09-01T13:02:39.236Z,56.90
2018-09-01T13:05:06.555Z,57.30
2018-09-01T13:07:32.881Z,56.50
2018-09-01T13:09:59.141Z,57.30
2018-09-01T13:12:28.711Z,56.20
2018-09-01T13:14:57.457Z,56.20
2018-09-01T13:17:26.402Z,56.10
2018-09-01T13:19:53.567Z,58.50
2018-09-01T13:22:20.616Z,58.00
2018-09-01T13:24:46.864Z,57.80
2018-09-01T13:27:13.328Z,56.30
2018-09-01T13:29:39.601Z,57.80
2018-09-01T13:32:05.880Z,57.70
2018-09-01T13:34:32.250Z,58.10
2018-09-01T13:36:58.455Z,55.90
2018-09-01T13:39:24.708Z,56.90
2018-09-01T13:41:51.666Z,59.00
2018-09-01T13:44:18.028Z,57.90
2018-09-01T13:46:46.305Z,58.90
2018-09-01T13:49:12.633Z,58.80
2018-09-01T13:51:39.678Z,58.10
2018-09-01T13:54:06.701Z,58.30
2018-09-01T13:56:32.973Z,58.30
2018-09-01T13:58:59.246Z,59.10
2018-09-01T14:01:25.516Z,57.50
2018-09-01T14:03:52.503Z,57.10
2018-09-01T14:06:18.785Z,57.10
2018-09-01T14:08:45.046Z,55.80
2018-09-01T14:11:11.304Z,56.80
2018-09-01T14:13:38.005Z,57.60
2018-09-01T14:16:05.643Z,58.80
2018-09-01T14:18:32.415Z,58.70
2018-09-01T14:20:58.696Z,57.00
2018-09-01T14:23:25.689Z,57.20
2018-09-01T14:25:51.981Z,58.60
2018-09-01T14:28:18.611Z,57.50
2018-09-01T14:30:45.616Z,58.70
2018-09-01T14:33:11.902Z,57.90
2018-09-01T14:35:38.838Z,57.90
2018-09-01T14:38:05.140Z,56.60
2018-09-01T14:40:31.427Z,57.60
2018-09-01T14:42:58.422Z,57.90
2018-09-01T14:45:24.708Z,57.90
2018-09-01T14:47:51.732Z,58.20
2018-09-01T14:50:18.001Z,58.00
2018-09-01T14:52:45.006Z,58.00
2018-09-01T14:55:11.252Z,58.00
2018-09-01T14:57:37.557Z,58.70
2018-09-01T15:00:04.664Z,58.90
2018-09-01T15:02:30.908Z,57.90
2018-09-01T15:04:57.156Z,57.90
2018-09-01T15:07:24.315Z,58.00
2018-09-01T15:09:51.414Z,56.20
2018-09-01T15:12:17.729Z,57.50
2018-09-01T15:14:44.713Z,56.40
2018-09-01T15:17:10.989Z,56.40
2018-09-01T15:19:38.097Z,57.50
2018-09-01T15:22:04.391Z,57.60
2018-09-01T15:24:30.646Z,57.10
2018-09-01T15:26:56.935Z,57.30
2018-09-01T15:29:23.201Z,57.10
2018-09-01T15:31:49.540Z,55.40
2018-09-01T15:34:15.831Z,57.40
2018-09-01T15:36:42.553Z,57.90
2018-09-01T15:39:08.925Z,56.60
2018-09-01T15:41:35.939Z,56.20
2018-09-01T15:44:03.024Z,55.50
2018-09-01T15:46:29.321Z,55.70
2018-09-01T15:48:55.792Z,55.30
2018-09-01T15:51:22.797Z,57.00
2018-09-01T15:53:49.175Z,57.00
2018-09-01T15:56:15.475Z,56.70
2018-09-01T15:58:41.727Z,58.40
2018-09-01T16:01:07.968Z,55.60
2018-09-01T16:03:35.048Z,56.40
2018-09-01T16:06:01.253Z,56.50
2018-09-01T16:08:28.186Z,56.20
2018-09-01T16:10:57.887Z,56.50
2018-09-01T16:13:24.196Z,56.30
2018-09-01T16:15:52.807Z,57.20
2018-09-01T16:18:21.239Z,55.30
2018-09-01T16:20:49.517Z,55.90
2018-09-01T16:23:20.943Z,55.60
2018-09-01T16:25:48.808Z,55.60
2018-09-01T16:28:16.040Z,55.80
2018-09-01T16:33:16.501Z,57.70
2018-09-01T16:35:43.732Z,56.70
2018-09-01T16:38:11.341Z,58.20
2018-09-01T16:40:40.984Z,57.10
2018-09-01T16:43:09.215Z,57.00
2018-09-01T16:45:36.837Z,56.10
2018-09-01T16:48:03.731Z,56.70
2018-09-01T16:50:30.755Z,57.10
2018-09-01T16:52:57.182Z,57.40
2018-09-01T16:55:24.212Z,56.90
2018-09-01T16:57:51.186Z,56.90
2018-09-01T17:00:17.465Z,57.10
2018-09-01T17:02:43.745Z,56.80
2018-09-01T17:05:09.989Z,57.80
2018-09-01T17:07:36.330Z,57.40
2018-09-01T17:10:02.634Z,57.70
2018-09-01T17:12:28.929Z,57.60
2018-09-01T17:14:55.181Z,57.30
2018-09-01T17:17:21.462Z,57.10
2018-09-01T17:19:47.732Z,57.00
2018-09-01T17:22:13.988Z,56.70
2018-09-01T17:24:40.282Z,56.60
2018-09-01T17:27:06.542Z,56.10
2018-09-01T17:29:34.319Z,56.70
2018-09-01T17:32:00.656Z,57.00
2018-09-01T17:34:27.694Z,57.00
2018-09-01T17:36:53.933Z,56.90
2018-09-01T17:39:20.967Z,58.20
2018-09-01T17:41:47.262Z,58.20
2018-09-01T17:44:13.542Z,58.00
2018-09-01T17:46:40.587Z,57.40
2018-09-01T17:49:07.618Z,57.50
2018-09-01T17:51:33.875Z,57.40
2018-09-01T17:54:00.174Z,57.60
2018-09-01T17:56:26.467Z,58.20
2018-09-01T17:58:52.717Z,59.30
2018-09-01T18:01:19.038Z,58.50
2018-09-01T18:03:45.284Z,58.60
2018-09-01T18:06:11.552Z,58.80
2018-09-01T18:08:38.736Z,58.90
2018-09-01T18:11:05.712Z,58.80
2018-09-01T18:13:34.567Z,58.90
2018-09-01T18:16:03.378Z,59.30
2018-09-01T18:18:32.366Z,59.40
2018-09-01T18:21:01.413Z,60.90
2018-09-01T18:23:31.830Z,60.30
2018-09-01T18:25:59.987Z,60.60
2018-09-01T18:28:30.114Z,60.80
2018-09-01T18:30:58.543Z,60.80
2018-09-01T18:33:28.340Z,61.50
2018-09-01T18:35:58.417Z,61.90
2018-09-01T18:38:27.819Z,62.40
2018-09-01T18:40:56.923Z,62.30
2018-09-01T18:43:25.640Z,61.90
2018-09-01T18:45:54.986Z,62.80
2018-09-01T18:48:24.979Z,62.70
2018-09-01T18:50:53.236Z,62.40
2018-09-01T18:53:21.965Z,63.10
2018-09-01T18:55:51.278Z,63.30
2018-09-01T18:58:21.707Z,63.60
2018-09-01T19:00:48.778Z,63.90
2018-09-01T19:03:17.785Z,63.90
2018-09-01T19:05:46.690Z,64.40
2018-09-01T19:08:15.065Z,64.80
2018-09-01T19:10:43.648Z,64.50
2018-09-01T19:13:09.896Z,64.80
2018-09-01T19:15:39.634Z,65.50
2018-09-01T19:18:06.009Z,65.50
2018-09-01T19:20:35.484Z,64.90
2018-09-01T19:23:01.894Z,65.50
2018-09-01T19:25:30.613Z,65.50
2018-09-01T19:27:59.968Z,65.60
2018-09-01T19:30:29.089Z,66.10
2018-09-01T19:32:58.419Z,66.20
2018-09-01T19:35:27.087Z,66.40
2018-09-01T19:37:55.945Z,67.00
2018-09-01T19:40:25.077Z,67.00
2018-09-01T19:42:54.284Z,67.00
2018-09-01T19:45:23.157Z,67.80
2018-09-01T19:47:51.443Z,67.40
2018-09-01T19:50:19.806Z,67.80
2018-09-01T19:52:49.149Z,69.00
2018-09-01T19:55:15.424Z,68.20
2018-09-01T19:57:46.143Z,68.30
2018-09-01T20:00:12.432Z,68.20
2018-09-01T20:02:38.686Z,68.80
2018-09-01T20:05:05.008Z,68.80
2018-09-01T20:07:31.277Z,68.70
2018-09-01T20:09:58.279Z,69.20
2018-09-01T20:12:24.536Z,69.00
2018-09-01T20:14:50.841Z,69.20
2018-09-01T20:17:17.082Z,69.40
2018-09-01T20:19:43.315Z,70.00
2018-09-01T20:22:09.695Z,69.60
2018-09-01T20:24:36.675Z,70.00
2018-09-01T20:27:04.519Z,71.10
2018-09-01T20:29:31.649Z,71.10
2018-09-01T20:31:58.750Z,70.50
2018-09-01T20:34:24.928Z,70.50
2018-09-01T20:36:52.832Z,70.90
2018-09-01T20:39:19.125Z,70.90
2018-09-01T20:41:46.174Z,71.70
2018-09-01T20:44:13.156Z,71.70
2018-09-01T20:46:39.442Z,71.50
2018-09-01T20:49:05.673Z,72.20
2018-09-01T20:51:32.577Z,72.60
2018-09-01T20:54:00.180Z,72.40
2018-09-01T20:56:26.492Z,72.70
2018-09-01T20:58:52.748Z,73.10
2018-09-01T21:01:19.770Z,73.30
2018-09-01T21:03:46.072Z,73.30
2018-09-01T21:06:12.969Z,73.60
2018-09-01T21:08:39.312Z,74.40
2018-09-01T21:11:05.874Z,73.90
2018-09-01T21:13:33.431Z,74.90
2018-09-01T21:15:59.756Z,74.80
2018-09-01T21:18:26.001Z,75.40
2018-09-01T21:20:52.280Z,75.20
2018-09-01T21:23:18.535Z,75.20
2018-09-01T21:25:47.876Z,76.20
2018-09-01T21:28:14.524Z,76.20
2018-09-01T21:30:41.281Z,76.50
2018-09-01T21:33:08.294Z,77.10
2018-09-01T21:35:35.900Z,77.10
2018-09-01T21:38:02.213Z,77.70
2018-09-01T21:40:29.320Z,78.20
2018-09-01T21:42:55.621Z,78.00
2018-09-01T21:45:21.852Z,78.50
2018-09-01T21:47:48.137Z,78.30
2018-09-01T21:50:14.950Z,78.90
2018-09-01T21:52:42.056Z,79.60
2018-09-01T21:55:08.626Z,79.10
2018-09-01T21:57:34.888Z,80.30
2018-09-01T22:00:02.995Z,80.20
2018-09-01T22:02:29.904Z,80.30
2018-09-01T22:04:56.990Z,80.30
2018-09-01T22:07:23.825Z,80.70
2018-09-01T22:09:50.178Z,81.20
2018-09-01T22:12:17.111Z,81.30
2018-09-01T22:14:44.134Z,82.20
2018-09-01T22:17:10.419Z,82.10
2018-09-01T22:19:36.672Z,83.20
2018-09-01T22:22:02.945Z,82.50
2018-09-01T22:24:29.216Z,83.00
2018-09-01T22:26:56.931Z,84.20
2018-09-01T22:29:23.206Z,84.20
2018-09-01T22:31:51.135Z,84.80
2018-09-01T22:34:17.483Z,84.80
2018-09-01T22:36:43.774Z,85.60
2018-09-01T22:39:10.036Z,86.20
2018-09-01T22:41:36.284Z,87.30
2018-09-01T22:44:02.589Z,87.40
2018-09-01T22:46:28.867Z,88.20
2018-09-01T22:48:55.132Z,88.90
2018-09-01T22:51:23.219Z,89.40
2018-09-01T22:56:32.144Z,90.00
2018-09-01T22:59:00.876Z,90.40
2018-09-01T23:01:29.163Z,90.70
2018-09-01T23:03:56.364Z,90.80
2018-09-01T23:06:24.007Z,91.00
2018-09-01T23:08:51.193Z,91.30
2018-09-01T23:11:18.699Z,91.40
2018-09-01T23:13:46.396Z,91.60
2018-09-01T23:16:15.227Z,91.70
2018-09-01T23:18:42.347Z,92.00
2018-09-01T23:21:10.177Z,92.20
2018-09-01T23:23:37.279Z,92.30
2018-09-01T23:26:06.346Z,92.90
2018-09-01T23:28:33.354Z,92.90
2018-09-01T23:31:02.329Z,92.80
2018-09-01T23:33:30.194Z,92.80
2018-09-01T23:35:58.401Z,93.10
2018-09-01T23:38:26.496Z,93.30
2018-09-01T23:40:56.522Z,93.50
2018-09-01T23:43:25.370Z,94.00
2018-09-01T23:45:53.713Z,94.10
2018-09-01T23:48:22.635Z,94.10
2018-09-01T23:50:50.591Z,94.30
2018-09-01T23:53:18.469Z,94.50
2018-09-01T23:55:47.179Z,94.80
2018-09-01T23:58:15.857Z,94.80
